Time;durP1;ratioP1;P1;durP2;ratioP2;P2;SDS_P1;SDS_P2;PMS_P1;PMS_P2;Temp;Humidity;BMP_temperature;BMP_pressure;BME280_temperature;BME280_humidity;BME280_pressure;Samples;Min_cycle;Max_cycle;Signal;HPM_P1;HPM_P2
2024/01/19 00:00:38;;;;;;;11.82;6.65;;;-1.20;99.90;;;;;;5076189;28;20051;-33
2024/01/19 00:03:04;;;;;;;11.20;6.82;;;-1.00;99.90;;;;;;5089259;28;20071;-31
2024/01/19 00:05:30;;;;;;;8.73;5.00;;;-1.10;99.90;;;;;;5085827;28;20546;-32
2024/01/19 00:07:56;;;;;;;22.35;10.48;;;-1.00;99.90;;;;;;5081660;28;20105;-32
2024/01/19 00:10:22;;;;;;;18.20;10.27;;;-0.90;99.90;;;;;;5080121;28;20052;-33
2024/01/19 00:12:47;;;;;;;14.93;7.82;;;-1.00;99.90;;;;;;5071368;28;20028;-33
2024/01/19 00:15:13;;;;;;;21.83;11.35;;;-1.00;99.90;;;;;;5085835;28;20040;-33
2024/01/19 00:17:39;;;;;;;16.67;9.00;;;-1.00;99.90;;;;;;5090329;28;20433;-32
2024/01/19 00:20:09;;;;;;;15.50;9.23;;;-1.10;99.90;;;;;;5076216;28;20492;-32
2024/01/19 00:22:35;;;;;;;19.83;10.80;;;-1.10;99.90;;;;;;5062533;28;20076;-31
2024/01/19 00:25:00;;;;;;;22.38;10.88;;;-1.10;99.90;;;;;;5091123;28;20355;-32
2024/01/19 00:27:26;;;;;;;13.90;8.10;;;-1.20;99.90;;;;;;5083344;28;20089;-33
2024/01/19 00:29:52;;;;;;;20.15;10.10;;;-1.30;99.90;;;;;;5090713;28;20056;-32
2024/01/19 00:32:18;;;;;;;27.77;13.65;;;-1.30;99.90;;;;;;5085713;28;20460;-33
2024/01/19 00:34:43;;;;;;;18.55;9.13;;;-1.30;99.90;;;;;;5077260;28;20082;-32
2024/01/19 00:37:09;;;;;;;13.65;6.25;;;-1.40;99.90;;;;;;5089842;28;20402;-33
2024/01/19 00:39:35;;;;;;;6.57;3.80;;;-1.40;99.90;;;;;;5083780;28;20044;-32
2024/01/19 00:42:01;;;;;;;10.15;5.18;;;-1.40;99.90;;;;;;5090630;28;20387;-32
2024/01/19 00:44:26;;;;;;;8.52;5.85;;;-1.40;99.90;;;;;;5081103;28;20125;-32
2024/01/19 00:46:52;;;;;;;15.90;9.40;;;-1.50;99.90;;;;;;5072859;28;20406;-32
2024/01/19 00:49:18;;;;;;;9.15;6.10;;;-1.40;99.90;;;;;;5086175;28;20032;-32
2024/01/19 00:51:44;;;;;;;7.22;4.28;;;-1.50;99.90;;;;;;5077413;28;20040;-32
2024/01/19 00:54:10;;;;;;;21.33;9.02;;;-1.50;99.90;;;;;;5087697;28;20357;-32
2024/01/19 00:56:35;;;;;;;27.17;10.90;;;-1.40;99.90;;;;;;5082532;28;20036;-31
2024/01/19 00:59:01;;;;;;;10.43;4.90;;;-1.40;99.90;;;;;;5070442;28;20553;-32
2024/01/19 01:01:27;;;;;;;14.48;7.18;;;-1.30;99.90;;;;;;5065628;28;20101;-32
2024/01/19 01:03:55;;;;;;;18.30;8.50;;;-1.30;99.90;;;;;;5091170;28;20056;-32
2024/01/19 01:06:20;;;;;;;20.30;8.70;;;-1.20;99.90;;;;;;5087964;28;20044;-32
2024/01/19 01:08:46;;;;;;;20.85;9.48;;;-1.20;99.90;;;;;;5082785;28;20027;-32
2024/01/19 01:11:12;;;;;;;23.27;9.93;;;-1.20;99.90;;;;;;5087301;28;20039;-31
2024/01/19 01:13:38;;;;;;;20.42;9.20;;;-1.10;99.90;;;;;;5084970;28;20032;-32
2024/01/19 01:16:04;;;;;;;11.18;5.60;;;-1.10;99.90;;;;;;5090381;28;20036;-32
2024/01/19 01:18:30;;;;;;;10.60;5.35;;;-1.20;99.90;;;;;;5085837;28;20159;-33
2024/01/19 01:20:57;;;;;;;11.55;6.38;;;-1.20;99.90;;;;;;5077195;28;20120;-32
2024/01/19 01:23:24;;;;;;;16.02;8.25;;;-1.30;99.90;;;;;;5088181;28;20044;-32
2024/01/19 01:25:49;;;;;;;14.77;7.15;;;-1.30;99.90;;;;;;5087218;28;20048;-32
2024/01/19 01:28:15;;;;;;;8.25;3.92;;;-1.40;99.90;;;;;;5086888;28;20044;-33
2024/01/19 01:30:41;;;;;;;8.40;4.45;;;-1.40;99.90;;;;;;5088533;28;20060;-31
2024/01/19 01:33:07;;;;;;;7.55;4.22;;;-1.40;99.90;;;;;;5083189;28;20404;-31
2024/01/19 01:35:33;;;;;;;7.90;4.32;;;-1.40;99.90;;;;;;5087781;28;20036;-32
2024/01/19 01:37:59;;;;;;;11.52;6.00;;;-1.50;99.90;;;;;;5078957;28;20048;-31
2024/01/19 01:40:25;;;;;;;9.60;4.18;;;-1.40;99.90;;;;;;5084903;28;20096;-32
2024/01/19 01:43:02;;;;;;;5.93;3.70;;;-1.50;99.90;;;;;;5081768;28;20495;-33
2024/01/19 01:45:29;;;;;;;20.27;10.40;;;-1.50;99.90;;;;;;5087691;28;20108;-31
2024/01/19 01:47:55;;;;;;;9.15;5.70;;;-1.40;99.90;;;;;;5067097;28;20059;-32
2024/01/19 01:50:21;;;;;;;11.13;5.55;;;-1.40;99.90;;;;;;5082361;28;20050;-33
2024/01/19 01:52:47;;;;;;;11.68;5.82;;;-1.40;99.90;;;;;;5086188;28;20036;-31
2024/01/19 01:55:13;;;;;;;10.45;4.55;;;-1.30;99.90;;;;;;5079897;28;20103;-32
2024/01/19 01:57:42;;;;;;;9.00;4.70;;;-1.30;99.90;;;;;;5089247;28;20063;-32
2024/01/19 02:00:09;;;;;;;9.43;5.75;;;-1.40;99.90;;;;;;5061121;28;20041;-32
2024/01/19 02:02:37;;;;;;;7.90;5.10;;;-1.20;99.90;;;;;;5090726;28;20048;-32
2024/01/19 02:05:03;;;;;;;8.13;4.00;;;-1.20;99.90;;;;;;5083874;28;20032;-32
2024/01/19 02:07:29;;;;;;;7.03;4.00;;;-1.20;99.90;;;;;;5059172;28;20040;-32
2024/01/19 02:09:55;;;;;;;6.85;3.38;;;-1.10;99.90;;;;;;5080553;28;20518;-32
2024/01/19 02:12:22;;;;;;;4.57;3.40;;;-1.20;99.90;;;;;;5085289;28;20404;-32
2024/01/19 02:14:48;;;;;;;5.63;3.67;;;-1.10;99.90;;;;;;5082823;28;20511;-31
2024/01/19 02:17:13;;;;;;;7.22;3.83;;;-1.20;99.90;;;;;;5082585;28;20083;-32
2024/01/19 02:19:39;;;;;;;7.43;4.40;;;-1.20;99.90;;;;;;5085638;28;20463;-31
2024/01/19 02:22:05;;;;;;;10.52;4.80;;;-1.20;99.90;;;;;;5080228;28;20043;-33
2024/01/19 02:24:33;;;;;;;8.07;3.42;;;-1.20;99.90;;;;;;5086446;28;20515;-31
2024/01/19 02:27:00;;;;;;;7.88;4.07;;;-1.20;99.90;;;;;;5086923;28;20105;-32
2024/01/19 02:29:26;;;;;;;7.75;3.83;;;-1.30;99.90;;;;;;5086774;28;20047;-33
2024/01/19 02:31:52;;;;;;;11.32;4.18;;;-1.40;99.90;;;;;;5087137;28;20052;-33
2024/01/19 02:34:17;;;;;;;7.32;3.92;;;-1.40;99.90;;;;;;5077155;28;20047;-32
2024/01/19 02:36:43;;;;;;;7.25;3.67;;;-1.50;99.90;;;;;;5086172;28;20044;-32
2024/01/19 02:39:09;;;;;;;8.40;3.95;;;-1.60;99.90;;;;;;5084727;28;20043;-32
2024/01/19 02:41:35;;;;;;;8.82;3.90;;;-1.60;99.90;;;;;;5088876;28;20031;-32
2024/01/19 02:44:00;;;;;;;8.30;4.03;;;-1.50;99.90;;;;;;5087484;28;20417;-31
2024/01/19 02:46:26;;;;;;;11.50;5.72;;;-1.60;99.90;;;;;;5069448;28;20072;-32
2024/01/19 02:48:52;;;;;;;11.85;6.80;;;-1.70;99.90;;;;;;5089737;28;20051;-33
2024/01/19 02:51:18;;;;;;;10.73;5.50;;;-1.70;99.90;;;;;;5080570;28;20441;-32
2024/01/19 02:53:43;;;;;;;11.43;5.75;;;-1.70;99.90;;;;;;5074185;28;20550;-33
2024/01/19 02:56:09;;;;;;;13.73;5.82;;;-1.70;99.90;;;;;;5090132;28;20039;-33
2024/01/19 02:58:35;;;;;;;11.63;5.35;;;-1.70;99.90;;;;;;5091945;28;20044;-32
2024/01/19 03:01:01;;;;;;;6.63;4.00;;;-1.60;99.90;;;;;;5085243;28;20071;-31
2024/01/19 03:03:27;;;;;;;4.97;3.70;;;-1.50;99.90;;;;;;5087648;28;20153;-32
2024/01/19 03:05:52;;;;;;;12.02;3.58;;;-1.20;99.90;;;;;;5088980;28;20097;-30
2024/01/19 03:08:20;;;;;;;11.07;3.63;;;-1.10;99.90;;;;;;5085565;28;20472;-33
2024/01/19 03:10:46;;;;;;;5.10;3.08;;;-1.00;99.90;;;;;;5090781;28;20380;-34
2024/01/19 03:13:12;;;;;;;5.95;3.30;;;-0.80;99.90;;;;;;5087453;28;20085;-32
2024/01/19 03:15:38;;;;;;;6.72;3.20;;;-0.90;99.90;;;;;;5074915;28;20071;-32
2024/01/19 03:18:04;;;;;;;8.27;3.40;;;-0.90;99.90;;;;;;5089218;28;20073;-33
2024/01/19 03:20:29;;;;;;;9.23;3.70;;;-0.90;99.90;;;;;;5062843;28;20032;-33
2024/01/19 03:22:55;;;;;;;7.80;3.63;;;-0.80;99.90;;;;;;5065048;28;20399;-32
2024/01/19 03:25:21;;;;;;;5.70;2.80;;;-0.80;99.90;;;;;;5092461;28;20044;-35
2024/01/19 03:27:46;;;;;;;7.93;3.50;;;-0.90;99.90;;;;;;5085131;28;20047;-33
2024/01/19 03:30:12;;;;;;;9.82;3.60;;;-0.90;99.90;;;;;;5050985;28;20412;-32
2024/01/19 03:32:38;;;;;;;8.77;3.92;;;-0.80;99.90;;;;;;5067291;28;20381;-32
2024/01/19 03:35:04;;;;;;;7.50;3.50;;;-0.80;99.90;;;;;;5066551;28;20051;-33
2024/01/19 03:37:30;;;;;;;7.38;3.42;;;-0.80;99.90;;;;;;5069447;28;20044;-33
2024/01/19 03:39:56;;;;;;;6.60;3.17;;;-0.80;99.90;;;;;;5068528;28;20123;-31
2024/01/19 03:42:21;;;;;;;6.65;3.00;;;-0.80;99.90;;;;;;5068944;28;20063;-30
2024/01/19 03:44:47;;;;;;;4.03;2.92;;;-0.80;99.90;;;;;;5061329;28;20029;-32
2024/01/19 03:47:13;;;;;;;7.45;3.55;;;-0.70;99.90;;;;;;5069888;28;20040;-30
2024/01/19 03:49:39;;;;;;;7.93;3.05;;;-0.70;99.90;;;;;;5057417;28;20076;-31
2024/01/19 03:52:07;;;;;;;8.13;2.60;;;-0.70;99.90;;;;;;5065845;28;20389;-31
2024/01/19 03:54:33;;;;;;;12.32;4.22;;;-0.60;99.90;;;;;;5067281;28;20495;-30
2024/01/19 03:57:00;;;;;;;7.20;3.15;;;-0.50;99.90;;;;;;5057438;28;20047;-30
2024/01/19 03:59:27;;;;;;;25.25;11.52;;;-0.50;99.90;;;;;;5067911;28;20469;-34
2024/01/19 04:01:54;;;;;;;27.65;14.32;;;-0.40;99.90;;;;;;5065283;28;20032;-31
2024/01/19 04:04:20;;;;;;;29.92;12.77;;;-0.40;99.90;;;;;;5068412;28;20042;-31
2024/01/19 04:06:46;;;;;;;5.40;3.80;;;-0.40;99.90;;;;;;5070270;28;20492;-35
2024/01/19 04:09:12;;;;;;;9.38;4.00;;;-0.40;99.90;;;;;;5058952;28;20041;-34
2024/01/19 04:11:37;;;;;;;21.52;10.85;;;-0.40;99.90;;;;;;5070854;28;20173;-35
2024/01/19 04:14:03;;;;;;;20.63;10.30;;;-0.30;99.90;;;;;;5061348;28;20037;-34
2024/01/19 04:16:29;;;;;;;35.47;16.45;;;-0.40;99.90;;;;;;5072750;28;20434;-35
2024/01/19 04:18:55;;;;;;;34.30;15.82;;;-0.50;99.90;;;;;;5063148;28;20070;-36
2024/01/19 04:21:20;;;;;;;48.03;23.42;;;-0.30;99.90;;;;;;5070689;28;20052;-36
2024/01/19 04:23:46;;;;;;;12.85;6.90;;;-0.40;99.90;;;;;;5068049;28;20114;-36
2024/01/19 04:26:12;;;;;;;17.38;9.95;;;-0.50;99.90;;;;;;5064142;28;20109;-35
2024/01/19 04:28:39;;;;;;;22.95;15.07;;;-0.50;99.90;;;;;;5071511;28;20040;-36
2024/01/19 04:31:07;;;;;;;19.00;13.18;;;-0.50;99.90;;;;;;5064990;28;20098;-34
2024/01/19 04:33:33;;;;;;;5.07;2.38;;;-0.60;99.90;;;;;;5070614;28;20538;-35
2024/01/19 04:35:59;;;;;;;7.13;4.45;;;-0.60;99.90;;;;;;5064898;28;20069;-36
2024/01/19 04:38:25;;;;;;;6.75;3.83;;;-0.60;99.90;;;;;;5058715;28;20388;-36
2024/01/19 04:40:50;;;;;;;5.43;2.47;;;-0.70;99.90;;;;;;5070874;28;20047;-35
2024/01/19 04:43:17;;;;;;;4.28;2.35;;;-0.70;99.90;;;;;;5066046;28;20404;-36
2024/01/19 04:45:44;;;;;;;3.72;2.33;;;-0.80;99.90;;;;;;5069492;28;20068;-35
2024/01/19 04:48:10;;;;;;;5.05;2.10;;;-0.80;99.90;;;;;;5063025;28;20036;-36
2024/01/19 04:50:37;;;;;;;5.50;2.30;;;-0.70;99.90;;;;;;5071930;28;20129;-35
2024/01/19 04:53:03;;;;;;;2.67;1.45;;;-0.80;99.90;;;;;;5063772;28;20041;-34
2024/01/19 04:55:28;;;;;;;4.57;2.00;;;-0.80;99.90;;;;;;5059231;28;20407;-37
2024/01/19 04:57:54;;;;;;;3.53;1.70;;;-0.80;99.90;;;;;;5067559;28;20124;-36
2024/01/19 05:00:22;;;;;;;3.08;1.83;;;-0.80;99.90;;;;;;5065180;28;20053;-37
2024/01/19 05:02:48;;;;;;;3.80;2.08;;;-0.90;99.90;;;;;;5071061;28;20068;-35
2024/01/19 05:05:14;;;;;;;4.05;1.67;;;-0.90;99.90;;;;;;5064175;28;20025;-34
2024/01/19 05:07:40;;;;;;;6.47;2.30;;;-1.00;99.90;;;;;;5060719;28;20127;-36
2024/01/19 05:10:06;;;;;;;7.32;2.38;;;-1.10;99.90;;;;;;5065317;28;20128;-33
2024/01/19 05:12:33;;;;;;;4.03;1.50;;;-1.10;99.90;;;;;;5066877;28;20040;-31
2024/01/19 05:14:59;;;;;;;4.53;2.75;;;-1.10;99.90;;;;;;5067925;28;20048;-32
2024/01/19 05:17:24;;;;;;;7.10;2.70;;;-1.10;99.90;;;;;;5066438;28;20044;-31
2024/01/19 05:19:50;;;;;;;3.20;2.10;;;-1.10;99.90;;;;;;5066786;28;20522;-34
2024/01/19 05:22:16;;;;;;;6.47;2.35;;;-1.10;99.90;;;;;;5063979;28;20029;-32
2024/01/19 05:24:42;;;;;;;4.63;2.53;;;-1.10;99.90;;;;;;5067608;28;20028;-31
2024/01/19 05:27:09;;;;;;;3.22;2.90;;;-1.10;99.90;;;;;;5069087;28;20129;-34
2024/01/19 05:29:35;;;;;;;7.50;3.08;;;-1.10;99.90;;;;;;5065491;28;20434;-34
2024/01/19 05:32:01;;;;;;;4.68;2.75;;;-1.10;99.90;;;;;;5079729;28;20048;-33
2024/01/19 05:34:27;;;;;;;6.28;3.22;;;-1.10;99.90;;;;;;5082671;28;20097;-32
2024/01/19 05:36:53;;;;;;;5.07;3.00;;;-1.10;99.90;;;;;;5086799;28;20044;-32
2024/01/19 05:39:19;;;;;;;5.60;3.97;;;-1.20;99.90;;;;;;5085179;28;20037;-32
2024/01/19 05:41:45;;;;;;;7.13;3.25;;;-1.10;99.90;;;;;;5087384;28;20384;-31
2024/01/19 05:44:11;;;;;;;5.60;3.67;;;-1.10;99.90;;;;;;5090192;28;20067;-32
2024/01/19 05:46:37;;;;;;;5.40;3.97;;;-1.10;99.90;;;;;;5069264;28;20506;-32
2024/01/19 05:49:02;;;;;;;7.55;4.10;;;-1.10;99.90;;;;;;5073149;28;20070;-33
2024/01/19 05:51:28;;;;;;;7.18;4.35;;;-1.10;99.90;;;;;;5059663;28;20487;-32
2024/01/19 05:53:54;;;;;;;7.35;4.82;;;-1.10;99.90;;;;;;5078056;28;20556;-31
2024/01/19 05:56:20;;;;;;;5.47;3.88;;;-1.10;99.90;;;;;;5084821;28;20448;-32
2024/01/19 05:58:45;;;;;;;6.00;3.83;;;-1.10;99.90;;;;;;5090023;28;20152;-33
2024/01/19 06:01:11;;;;;;;4.35;3.53;;;-1.20;99.90;;;;;;5084989;28;20100;-32
2024/01/19 06:03:38;;;;;;;6.45;3.83;;;-1.20;99.90;;;;;;5081775;28;20035;-32
2024/01/19 06:06:04;;;;;;;7.10;3.80;;;-1.30;99.90;;;;;;5078591;28;20081;-32
2024/01/19 06:08:31;;;;;;;5.00;3.90;;;-1.30;99.90;;;;;;5070207;28;20048;-31
2024/01/19 06:10:57;;;;;;;8.32;4.50;;;-1.30;99.90;;;;;;5078136;28;20045;-30
2024/01/19 06:13:23;;;;;;;7.38;5.15;;;-1.40;99.90;;;;;;5069723;28;20047;-31
2024/01/19 06:15:49;;;;;;;8.25;4.20;;;-1.20;99.90;;;;;;5071672;28;20168;-30
2024/01/19 06:18:15;;;;;;;6.28;3.88;;;-1.20;99.90;;;;;;5088139;28;20056;-29
2024/01/19 06:20:41;;;;;;;7.20;3.35;;;-1.20;99.90;;;;;;5080317;28;20055;-31
2024/01/19 06:23:08;;;;;;;10.05;3.47;;;-1.20;99.90;;;;;;5083864;28;20079;-30
2024/01/19 06:25:34;;;;;;;5.93;3.35;;;-1.20;99.90;;;;;;5080726;28;20033;-30
2024/01/19 06:28:00;;;;;;;7.38;3.53;;;-1.20;99.90;;;;;;5089639;28;20040;-30
2024/01/19 06:30:26;;;;;;;3.45;2.90;;;-1.20;99.90;;;;;;5078492;28;20052;-29
2024/01/19 06:32:52;;;;;;;5.57;2.58;;;-1.40;99.90;;;;;;5078368;28;20044;-33
2024/01/19 06:35:17;;;;;;;6.38;2.50;;;-1.40;99.90;;;;;;5085992;28;20032;-29
2024/01/19 06:37:43;;;;;;;6.22;2.15;;;-1.40;99.90;;;;;;5087250;28;20051;-31
2024/01/19 06:40:10;;;;;;;4.68;1.77;;;-1.30;99.90;;;;;;5088919;28;20411;-32
2024/01/19 06:42:37;;;;;;;4.82;1.90;;;-1.30;99.90;;;;;;5083526;28;20454;-31
2024/01/19 06:45:03;;;;;;;5.93;2.08;;;-1.20;99.90;;;;;;5089389;28;20113;-32
2024/01/19 06:47:29;;;;;;;3.78;1.55;;;-1.30;99.90;;;;;;5080413;28;20124;-31
2024/01/19 06:49:54;;;;;;;4.82;1.90;;;-1.30;99.90;;;;;;5080480;28;20115;-31
2024/01/19 06:52:20;;;;;;;6.03;1.90;;;-1.30;99.90;;;;;;5088746;28;20490;-30
2024/01/19 06:54:46;;;;;;;4.63;1.60;;;-1.20;99.90;;;;;;5064642;28;20084;-34
2024/01/19 06:57:12;;;;;;;6.78;2.13;;;-1.20;99.90;;;;;;5087299;28;20395;-33
2024/01/19 06:59:37;;;;;;;5.70;2.28;;;-1.10;99.90;;;;;;5091635;28;20028;-32
2024/01/19 07:02:04;;;;;;;6.05;2.05;;;-1.10;99.90;;;;;;5090830;28;20092;-34
2024/01/19 07:04:30;;;;;;;4.50;2.05;;;-1.00;99.90;;;;;;5093388;28;20043;-32
2024/01/19 07:06:56;;;;;;;5.13;2.17;;;-0.70;99.90;;;;;;5075602;28;20029;-34
2024/01/19 07:09:22;;;;;;;6.63;2.20;;;-0.60;99.90;;;;;;5089127;28;20097;-33
2024/01/19 07:11:47;;;;;;;5.13;1.85;;;-0.50;99.90;;;;;;5083239;28;20511;-32
2024/01/19 07:14:13;;;;;;;5.05;1.58;;;-0.50;99.90;;;;;;5083428;28;20455;-32
2024/01/19 07:16:40;;;;;;;6.72;1.67;;;-0.40;99.90;;;;;;5092640;28;20036;-32
2024/01/19 07:19:06;;;;;;;6.93;2.08;;;-0.40;99.90;;;;;;5062634;28;20166;-32
2024/01/19 07:21:40;;;;;;;5.88;2.15;;;-0.30;99.90;;;;;;5085535;28;20038;-32
2024/01/19 07:24:06;;;;;;;;;;;-0.30;99.90;;;;;;5081882;28;20032;-33
2024/01/19 07:26:32;;;;;;;3.58;1.60;;;-0.40;99.90;;;;;;5090068;28;20344;-32
2024/01/19 07:28:58;;;;;;;4.68;1.75;;;-0.40;99.90;;;;;;5082220;28;20036;-33
2024/01/19 07:31:24;;;;;;;7.15;1.88;;;-0.40;99.90;;;;;;5069068;28;20057;-32
2024/01/19 07:33:50;;;;;;;3.05;1.50;;;-0.50;99.90;;;;;;5077868;28;20495;-33
2024/01/19 07:36:16;;;;;;;4.70;1.75;;;-0.50;99.90;;;;;;5076645;28;20060;-34
2024/01/19 07:38:42;;;;;;;4.10;1.45;;;-0.60;99.90;;;;;;5077200;28;20127;-33
2024/01/19 07:41:08;;;;;;;3.58;1.65;;;-0.60;99.90;;;;;;5060331;28;20033;-31
2024/01/19 07:43:34;;;;;;;3.25;1.60;;;-0.80;99.90;;;;;;5089979;28;20444;-32
2024/01/19 07:45:59;;;;;;;1.90;1.33;;;-0.70;99.90;;;;;;5063538;28;20403;-33
2024/01/19 07:48:25;;;;;;;4.45;2.28;;;-0.80;99.90;;;;;;5063358;28;20028;-33
2024/01/19 07:50:51;;;;;;;6.90;1.95;;;-0.90;99.90;;;;;;5084271;28;20052;-32
2024/01/19 07:53:16;;;;;;;3.30;1.85;;;-0.90;99.90;;;;;;5081441;28;20044;-32
2024/01/19 07:55:42;;;;;;;5.28;2.08;;;-0.90;99.90;;;;;;5079145;28;20533;-33
2024/01/19 07:58:08;;;;;;;5.43;2.20;;;-1.00;99.90;;;;;;5087728;28;20040;-33
2024/01/19 08:00:34;;;;;;;4.03;2.00;;;-1.00;99.90;;;;;;5089638;28;20032;-34
2024/01/19 08:03:00;;;;;;;6.10;2.20;;;-1.00;99.90;;;;;;5091605;28;20624;-34
2024/01/19 08:05:26;;;;;;;6.18;2.20;;;-1.00;99.90;;;;;;5083528;28;20079;-33
2024/01/19 08:07:52;;;;;;;5.75;2.20;;;-1.10;99.90;;;;;;5087786;28;20084;-33
2024/01/19 08:10:19;;;;;;;4.90;2.25;;;-1.00;99.90;;;;;;5086010;28;20044;-34
2024/01/19 08:12:45;;;;;;;3.70;1.98;;;-1.00;99.90;;;;;;5088540;28;20047;-35
2024/01/19 08:15:10;;;;;;;4.15;2.00;;;-1.00;99.90;;;;;;5087375;28;20100;-34
2024/01/19 08:17:36;;;;;;;4.07;2.22;;;-0.90;99.90;;;;;;5069857;28;20051;-35
2024/01/19 08:20:03;;;;;;;5.78;2.67;;;-0.90;99.90;;;;;;5083041;28;20047;-35
2024/01/19 08:22:28;;;;;;;5.10;2.50;;;-0.80;99.90;;;;;;5086184;28;20032;-33
2024/01/19 08:24:55;;;;;;;7.07;3.05;;;-0.60;99.90;;;;;;5049739;28;20411;-34
2024/01/19 08:27:20;;;;;;;5.65;3.00;;;-0.60;99.90;;;;;;5070350;28;20095;-35
2024/01/19 08:29:47;;;;;;;13.18;6.43;;;-0.40;99.90;;;;;;5081458;28;20071;-34
2024/01/19 08:32:13;;;;;;;28.13;15.70;;;-0.30;99.90;;;;;;5065278;28;20044;-35
2024/01/19 08:34:39;;;;;;;4.53;3.22;;;-0.30;99.90;;;;;;5089893;28;20395;-34
2024/01/19 08:37:05;;;;;;;7.00;4.20;;;-0.10;99.90;;;;;;5082667;28;20133;-34
2024/01/19 08:39:30;;;;;;;8.18;6.03;;;-0.10;99.90;;;;;;5084936;28;20051;-35
2024/01/19 08:41:56;;;;;;;24.67;14.55;;;0.00;99.90;;;;;;5088667;28;20184;-35
2024/01/19 08:44:22;;;;;;;21.20;11.18;;;0.20;99.90;;;;;;5089912;28;20502;-35
2024/01/19 08:46:49;;;;;;;26.70;12.73;;;0.20;99.90;;;;;;5071177;28;20140;-35
2024/01/19 08:49:15;;;;;;;16.98;6.68;;;0.20;99.90;;;;;;5079812;28;20074;-35
2024/01/19 08:51:41;;;;;;;8.07;4.63;;;0.10;99.90;;;;;;5089453;28;20044;-35
2024/01/19 08:54:07;;;;;;;21.00;10.35;;;0.00;99.90;;;;;;5082368;28;20071;-35
2024/01/19 08:56:33;;;;;;;23.70;11.20;;;0.00;99.90;;;;;;5070325;28;20072;-35
2024/01/19 08:58:59;;;;;;;19.52;7.50;;;0.00;99.90;;;;;;5072735;28;20048;-34
2024/01/19 09:01:26;;;;;;;23.73;12.48;;;0.00;99.90;;;;;;5087051;28;20059;-35
2024/01/19 09:03:52;;;;;;;18.48;9.80;;;0.10;99.90;;;;;;5090798;28;20040;-35
2024/01/19 09:06:18;;;;;;;30.33;16.75;;;0.20;99.90;;;;;;5088647;28;20036;-34
2024/01/19 09:08:44;;;;;;;26.02;12.80;;;0.30;99.90;;;;;;5078210;28;20071;-35
2024/01/19 09:11:12;;;;;;;39.30;20.98;;;0.30;99.90;;;;;;5088427;28;20075;-33
2024/01/19 09:13:38;;;;;;;13.02;8.10;;;0.30;99.90;;;;;;5084976;28;20089;-35
2024/01/19 09:16:08;;;;;;;10.00;5.40;;;0.30;99.90;;;;;;5089966;28;20044;-34
2024/01/19 09:18:38;;;;;;;8.95;4.60;;;0.30;99.90;;;;;;5087641;28;20044;-33
2024/01/19 09:21:05;;;;;;;11.10;5.13;;;0.30;99.90;;;;;;5085747;28;20128;-33
2024/01/19 09:23:30;;;;;;;16.40;8.70;;;0.30;99.90;;;;;;5070085;28;20066;-34
2024/01/19 09:25:56;;;;;;;12.82;7.88;;;0.50;99.90;;;;;;5087292;28;20036;-33
2024/01/19 09:28:22;;;;;;;22.23;10.07;;;0.60;99.90;;;;;;5088788;28;20087;-33
2024/01/19 09:30:48;;;;;;;23.35;14.13;;;0.70;99.90;;;;;;5081724;28;20521;-33
2024/01/19 09:33:14;;;;;;;16.92;9.43;;;0.90;99.90;;;;;;5087738;28;20118;-33
2024/01/19 09:35:41;;;;;;;11.63;7.00;;;1.40;99.90;;;;;;5084066;28;20035;-33
2024/01/19 09:38:06;;;;;;;15.65;9.27;;;2.30;99.90;;;;;;5083611;28;20380;-33
2024/01/19 09:40:33;;;;;;;18.08;9.60;;;3.00;99.90;;;;;;5089769;28;20173;-34
2024/01/19 09:42:59;;;;;;;4.53;2.70;;;3.90;99.90;;;;;;5087269;28;20036;-33
2024/01/19 09:45:41;;;;;;;11.73;6.45;;;4.50;99.90;;;;;;5090115;28;20579;-38
2024/01/19 09:48:19;;;;;;;8.40;5.60;;;5.20;99.90;;;;;;5080937;28;20044;-36
2024/01/19 09:50:47;;;;;;;6.95;4.63;;;5.70;99.90;;;;;;5086362;28;20403;-35
2024/01/19 09:53:26;;;;;;;6.78;3.20;;;6.10;99.90;;;;;;5077616;28;20068;-36
2024/01/19 09:55:52;;;;;;;8.38;3.60;;;6.50;99.90;;;;;;5087960;28;20133;-33
2024/01/19 09:58:22;;;;;;;5.68;3.53;;;6.40;99.90;;;;;;5087344;28;20075;-34
2024/01/19 10:00:50;;;;;;;4.60;3.13;;;6.30;99.90;;;;;;5083475;28;20047;-35
2024/01/19 10:03:17;;;;;;;5.40;3.20;;;6.80;99.90;;;;;;5055480;28;20457;-34
2024/01/19 10:05:44;;;;;;;8.85;3.60;;;7.20;99.90;;;;;;5088592;28;20095;-35
2024/01/19 10:08:13;;;;;;;6.82;4.28;;;7.60;99.90;;;;;;5075848;28;20123;-37
2024/01/19 10:10:43;;;;;;;6.47;3.05;;;7.90;99.90;;;;;;5084009;28;20576;-36
2024/01/19 10:13:09;;;;;;;8.05;3.30;;;8.40;99.90;;;;;;5071143;28;20550;-36
2024/01/19 10:15:35;;;;;;;6.50;3.63;;;8.60;99.90;;;;;;5084319;28;20093;-37
2024/01/19 10:18:03;;;;;;;7.82;2.78;;;8.80;99.90;;;;;;5082519;28;20048;-40
2024/01/19 10:20:30;;;;;;;9.27;3.60;;;8.80;99.90;;;;;;5078221;28;20440;-36
2024/01/19 10:22:56;;;;;;;7.78;3.55;;;8.60;99.90;;;;;;5078788;28;20580;-36
2024/01/19 10:25:22;;;;;;;4.30;3.05;;;8.80;99.90;;;;;;5069481;28;20053;-37
2024/01/19 10:27:51;;;;;;;7.03;3.17;;;8.80;99.90;;;;;;5084308;28;20050;-37
2024/01/19 10:30:27;;;;;;;5.47;3.13;;;8.50;99.90;;;;;;5074804;28;20517;-36
2024/01/19 10:33:02;;;;;;;5.80;3.00;;;8.40;99.90;;;;;;5076840;28;20043;-39
2024/01/19 10:35:28;;;;;;;5.28;3.60;;;8.20;99.90;;;;;;5077404;28;20491;-37
2024/01/19 10:38:05;;;;;;;6.07;3.30;;;8.40;99.90;;;;;;5078339;28;20058;-37
2024/01/19 10:40:33;;;;;;;3.83;3.15;;;8.10;99.90;;;;;;5084734;28;20040;-38
2024/01/19 10:42:59;;;;;;;5.32;3.55;;;8.10;99.90;;;;;;5070228;28;20495;-38
2024/01/19 10:45:30;;;;;;;6.22;3.30;;;7.80;99.90;;;;;;5083316;28;20028;-37
2024/01/19 10:48:03;;;;;;;5.13;3.72;;;8.00;99.90;;;;;;5064510;28;20143;-37
2024/01/19 10:50:30;;;;;;;5.72;2.97;;;7.90;99.90;;;;;;5081982;28;20032;-37
2024/01/19 10:52:59;;;;;;;6.75;3.80;;;7.90;99.90;;;;;;5055792;28;20491;-36
2024/01/19 10:55:29;;;;;;;3.75;3.22;;;8.00;99.90;;;;;;5085705;28;20036;-37
2024/01/19 10:58:05;;;;;;;5.00;3.25;;;8.20;99.90;;;;;;5084165;28;20040;-36
2024/01/19 11:00:30;;;;;;;5.88;3.40;;;8.80;99.90;;;;;;5083737;28;20071;-38
2024/01/19 11:02:59;;;;;;;8.25;3.65;;;8.80;99.90;;;;;;5089899;28;20414;-37
2024/01/19 11:05:26;;;;;;;7.22;3.47;;;8.80;99.90;;;;;;5090894;28;20024;-36
2024/01/19 11:07:58;;;;;;;6.15;4.63;;;8.80;99.90;;;;;;5070698;28;20048;-36
2024/01/19 11:10:25;;;;;;;9.27;3.55;;;8.60;99.90;;;;;;5089581;28;20066;-38
2024/01/19 11:12:56;;;;;;;9.60;5.72;;;8.90;99.90;;;;;;5084721;28;20044;-37
2024/01/19 11:15:51;;;;;;;8.50;4.80;;;9.00;99.90;;;;;;5088102;28;20501;-39
2024/01/19 11:18:17;;;;;;;10.38;5.60;;;9.80;99.90;;;;;;5091699;28;20048;-39
2024/01/19 11:20:43;;;;;;;7.97;2.92;;;10.30;99.90;;;;;;5082502;28;20058;-34
2024/01/19 11:23:09;;;;;;;5.97;3.67;;;10.80;99.90;;;;;;5090695;28;20081;-36
2024/01/19 11:25:55;;;;;;;6.43;2.80;;;11.20;99.90;;;;;;5084319;28;20037;-34
2024/01/19 11:28:43;;;;;;;4.90;2.50;;;10.80;99.90;;;;;;5090174;28;20127;-35
2024/01/19 11:31:22;;;;;;;6.93;2.65;;;10.40;99.90;;;;;;5082261;28;20193;-34
2024/01/19 11:33:48;;;;;;;6.38;2.50;;;10.10;99.90;;;;;;5082572;28;20597;-34
2024/01/19 11:36:33;;;;;;;6.95;2.75;;;10.30;99.90;;;;;;5082285;28;20047;-34
2024/01/19 11:38:59;;;;;;;5.07;2.90;;;10.20;99.90;;;;;;5069341;28;20123;-34
2024/01/19 11:41:34;;;;;;;6.05;2.30;;;10.30;99.90;;;;;;5067440;28;20547;-34
2024/01/19 11:44:05;;;;;;;5.57;2.90;;;10.50;99.90;;;;;;5091579;28;20047;-34
2024/01/19 11:46:49;;;;;;;4.68;2.60;;;10.40;99.90;;;;;;5088777;28;20395;-34
2024/01/19 11:49:35;;;;;;;8.77;3.75;;;10.60;99.90;;;;;;5061675;28;20043;-35
2024/01/19 11:52:03;;;;;;;4.68;3.00;;;10.30;99.90;;;;;;5087772;28;20129;-35
2024/01/19 11:54:33;;;;;;;8.02;2.75;;;10.30;99.90;;;;;;5068709;28;20080;-34
2024/01/19 11:57:22;;;;;;;5.80;2.45;;;10.50;99.90;;;;;;5089016;28;20040;-34
2024/01/19 11:59:48;;;;;;;6.82;2.83;;;10.00;99.90;;;;;;5087231;28;20050;-34
2024/01/19 12:02:27;;;;;;;7.20;2.80;;;10.20;99.90;;;;;;5083638;28;20430;-36
2024/01/19 12:04:53;;;;;;;5.72;2.40;;;10.30;99.90;;;;;;5078088;28;20036;-35
2024/01/19 12:07:21;;;;;;;5.47;2.10;;;10.40;99.90;;;;;;5084277;28;20048;-35
2024/01/19 12:10:19;;;;;;;7.45;2.80;;;10.00;99.90;;;;;;5086057;28;20048;-34
2024/01/19 12:12:46;;;;;;;8.85;3.05;;;10.50;99.90;;;;;;5071170;28;20399;-34
2024/01/19 12:15:15;;;;;;;5.43;2.45;;;11.10;99.90;;;;;;5080913;28;20514;-34
2024/01/19 12:17:42;;;;;;;5.47;2.40;;;11.20;99.90;;;;;;5086845;28;20181;-35
2024/01/19 12:20:09;;;;;;;5.85;2.83;;;11.20;99.90;;;;;;5081729;28;20048;-35
2024/01/19 12:22:36;;;;;;;6.60;2.60;;;11.00;99.90;;;;;;5075867;28;20785;-35
2024/01/19 12:25:18;;;;;;;5.50;2.40;;;11.10;99.90;;;;;;5086908;28;20430;-34
2024/01/19 12:27:46;;;;;;;7.07;2.47;;;11.10;99.90;;;;;;5078491;28;20031;-35
2024/01/19 12:30:13;;;;;;;4.25;2.30;;;11.00;99.90;;;;;;5084641;28;20059;-35
2024/01/19 12:32:39;;;;;;;5.47;2.53;;;10.10;99.90;;;;;;5079669;28;20048;-35
2024/01/19 12:35:05;;;;;;;5.07;2.20;;;9.30;99.90;;;;;;5086350;28;20136;-35
2024/01/19 12:37:31;;;;;;;7.47;2.60;;;8.60;99.90;;;;;;5074567;28;20483;-34
2024/01/19 12:40:17;;;;;;;6.10;2.55;;;8.30;99.90;;;;;;5067099;28;20123;-35
2024/01/19 12:42:44;;;;;;;7.50;2.63;;;8.60;99.90;;;;;;5062421;28;20479;-35
2024/01/19 12:45:14;;;;;;;8.32;2.40;;;9.00;99.90;;;;;;5086400;28;20033;-36